Time;durP1;ratioP1;P1;durP2;ratioP2;P2;SDS_P1;SDS_P2;PMS_P1;PMS_P2;Temp;Humidity;BMP_temperature;BMP_pressure;BME280_temperature;BME280_humidity;BME280_pressure;Samples;Min_cycle;Max_cycle;Signal;HPM_P1;HPM_P2
2022/08/08 00:00:26;;;;;;;3.78;1.67;;;;;18.00;96825.00;;;;8378109;28;20226;-79
2022/08/08 00:04:58;;;;;;;3.30;1.85;;;;;17.80;96828.00;;;;8390225;28;20238;-79
2022/08/08 00:09:06;;;;;;;2.42;1.80;;;;;17.70;96829.00;;;;8386019;28;20234;-79
2022/08/08 00:13:17;;;;;;;1.50;1.40;;;;;17.60;96842.00;;;;8384294;28;20309;-79
2022/08/08 00:17:30;;;;;;;2.10;1.70;;;;;17.50;96840.00;;;;8392140;28;20219;-76
2022/08/08 00:21:59;;;;;;;1.80;1.70;;;;;17.30;96841.00;;;;8393754;28;20616;-79
2022/08/08 00:26:07;;;;;;;2.70;2.03;;;;;17.10;96841.00;;;;8388723;28;20245;-78
2022/08/08 00:30:15;;;;;;;1.80;1.70;;;;;16.80;96849.00;;;;8405623;28;20249;-78
2022/08/08 00:39:12;;;;;;;3.25;2.47;;;;;16.40;96846.00;;;;8412637;28;20284;-77
2022/08/08 00:44:05;;;;;;;2.17;2.08;;;;;16.30;96840.00;;;;8384134;28;20231;-78
2022/08/08 00:48:46;;;;;;;5.35;2.33;;;;;16.10;96835.00;;;;8382993;28;20231;-77
2022/08/08 00:53:19;;;;;;;3.80;2.17;;;;;16.00;96840.00;;;;8359033;28;20223;-80
2022/08/08 00:58:05;;;;;;;2.42;2.30;;;;;15.80;96836.00;;;;8377450;28;20284;-77
2022/08/08 01:02:50;;;;;;;4.03;2.03;;;;;15.60;96831.00;;;;8381194;28;20227;-76
2022/08/08 01:07:47;;;;;;;2.25;2.00;;;;;15.60;96827.00;;;;8366707;28;20616;-77
2022/08/08 01:12:42;;;;;;;2.42;2.00;;;;;15.70;96832.00;;;;8387712;28;20678;-77
2022/08/08 01:17:22;;;;;;;2.70;1.90;;;;;15.80;96831.00;;;;8284782;28;20312;-77
2022/08/08 01:22:01;;;;;;;1.80;1.70;;;;;16.10;96825.00;;;;8390685;28;20225;-77
2022/08/08 01:26:39;;;;;;;3.25;2.03;;;;;16.30;96827.00;;;;8384451;28;20224;-78
2022/08/08 01:31:22;;;;;;;1.85;1.65;;;;;16.40;96825.00;;;;8393982;28;20345;-77
2022/08/08 01:36:17;;;;;;;3.80;1.92;;;;;16.60;96830.00;;;;8376108;28;20255;-77
2022/08/08 01:40:30;;;;;;;3.33;2.00;;;;;16.60;96834.00;;;;8384531;28;20234;-77
2022/08/08 01:44:58;;;;;;;2.38;2.17;;;;;16.60;96834.00;;;;8383156;28;20239;-77
2022/08/08 01:49:18;;;;;;;5.60;2.00;;;;;16.60;96831.00;;;;8383802;28;20222;-76
2022/08/08 01:53:48;;;;;;;2.75;2.05;;;;;16.60;96831.00;;;;8388769;28;20582;-77
2022/08/08 01:58:37;;;;;;;3.80;1.85;;;;;16.50;96827.00;;;;8379699;28;20279;-79
2022/08/08 02:03:10;;;;;;;2.03;1.80;;;;;16.50;96835.00;;;;8398016;28;20273;-79
2022/08/08 02:07:48;;;;;;;2.10;2.00;;;;;16.50;96841.00;;;;8370032;28;20228;-78
2022/08/08 02:11:53;;;;;;;1.95;1.85;;;;;16.60;96826.00;;;;8378956;28;20279;-78
2022/08/08 02:16:13;;;;;;;2.20;2.00;;;;;16.60;96832.00;;;;8388119;28;20219;-81
2022/08/08 02:20:30;;;;;;;2.38;2.17;;;;;16.30;96827.00;;;;8385798;28;20673;-80
2022/08/08 02:24:56;;;;;;;2.10;2.00;;;;;15.70;96820.00;;;;8402297;28;20233;-82
2022/08/08 02:29:20;;;;;;;2.38;2.10;;;;;15.50;96816.00;;;;8381819;28;20231;-78
2022/08/08 02:33:45;;;;;;;3.03;2.10;;;;;15.40;96820.00;;;;8403024;28;20332;-78
2022/08/08 02:38:50;;;;;;;3.55;2.10;;;;;15.10;96826.00;;;;8376521;28;20601;-82
2022/08/08 02:43:33;;;;;;;2.55;2.35;;;;;14.70;96823.00;;;;8388638;28;20573;-81
2022/08/08 02:48:26;;;;;;;3.13;2.33;;;;;14.30;96816.00;;;;8379491;28;20315;-80
2022/08/08 02:52:48;;;;;;;2.65;2.45;;;;;14.20;96823.00;;;;8377630;28;20301;-80
2022/08/08 02:57:26;;;;;;;2.55;2.40;;;;;14.10;96818.00;;;;8377680;28;20228;-81
2022/08/08 03:02:26;;;;;;;2.67;2.47;;;;;14.10;96816.00;;;;8416184;22;20479;-80
2022/08/08 03:07:17;;;;;;;3.38;2.30;;;;;14.10;96826.00;;;;8325268;28;20256;-80
2022/08/08 03:12:10;;;;;;;3.25;2.53;;;;;14.00;96822.00;;;;8307679;28;20271;-80
2022/08/08 03:16:26;;;;;;;2.65;2.33;;;;;13.90;96830.00;;;;8325088;28;20241;-80
2022/08/08 03:20:46;;;;;;;4.40;2.70;;;;;13.80;96821.00;;;;8325997;28;20222;-77
2022/08/08 03:24:55;;;;;;;2.53;2.42;;;;;13.80;96826.00;;;;8330879;28;20240;-79
2022/08/08 03:29:07;;;;;;;2.67;2.47;;;;;13.70;96823.00;;;;8328796;28;20252;-77
2022/08/08 03:33:23;;;;;;;2.92;2.70;;;;;13.60;96824.00;;;;8332219;28;20224;-79
2022/08/08 03:37:46;;;;;;;2.80;2.60;;;;;13.50;96823.00;;;;8330361;28;20716;-80
2022/08/08 03:42:16;;;;;;;2.80;2.60;;;;;13.50;96823.00;;;;8322708;28;20263;-82
2022/08/08 03:46:46;;;;;;;2.60;2.40;;;;;13.60;96832.00;;;;8331521;28;20280;-80
2022/08/08 03:50:50;;;;;;;2.65;2.45;;;;;13.60;96831.00;;;;8326449;28;20225;-79
2022/08/08 03:54:54;;;;;;;3.38;2.75;;;;;13.50;96845.00;;;;8325411;28;20305;-77
2022/08/08 03:59:14;;;;;;;2.73;2.53;;;;;13.50;96834.00;;;;8323641;28;20582;-79
2022/08/08 04:03:34;;;;;;;3.20;2.90;;;;;13.50;96840.00;;;;8326067;28;20318;-79
2022/08/08 04:07:58;;;;;;;2.80;2.60;;;;;13.40;96843.00;;;;8314963;28;20686;-81
2022/08/08 04:12:15;;;;;;;6.47;2.95;;;;;13.40;96843.00;;;;8318031;28;20662;-81
2022/08/08 04:16:19;;;;;;;2.80;2.60;;;;;13.40;96842.00;;;;8300979;28;20229;-77
2022/08/08 04:20:40;;;;;;;2.63;2.42;;;;;13.30;96850.00;;;;8322018;28;21015;-80
2022/08/08 04:24:44;;;;;;;3.08;2.63;;;;;13.30;96849.00;;;;8325880;28;20234;-78
2022/08/08 04:28:52;;;;;;;5.65;3.10;;;;;13.40;96857.00;;;;8319924;28;20225;-78
2022/08/08 04:32:58;;;;;;;5.15;3.15;;;;;13.50;96863.00;;;;8317106;28;20232;-79
2022/08/08 04:37:01;;;;;;;3.67;3.08;;;;;13.50;96871.00;;;;8324642;28;20308;-76
2022/08/08 04:41:06;;;;;;;10.57;3.92;;;;;13.50;96866.00;;;;8312916;28;20311;-77
2022/08/08 04:45:10;;;;;;;3.35;3.05;;;;;13.60;96875.00;;;;8299734;28;20233;-69
2022/08/08 04:49:14;;;;;;;2.95;2.85;;;;;13.70;96878.00;;;;8300809;28;20221;-69
2022/08/08 04:53:20;;;;;;;2.92;2.67;;;;;13.90;96890.00;;;;8317851;28;20234;-69
2022/08/08 04:57:44;;;;;;;2.45;2.25;;;;;14.10;96891.00;;;;8311393;28;21110;-70
2022/08/08 05:01:47;;;;;;;3.28;2.42;;;;;14.40;96889.00;;;;8316927;28;21363;-70
2022/08/08 05:05:52;;;;;;;2.25;2.13;;;;;14.80;96890.00;;;;8317559;28;20256;-69
2022/08/08 05:09:57;;;;;;;2.15;1.95;;;;;15.10;96880.00;;;;8318974;28;20308;-68
2022/08/08 05:14:01;;;;;;;2.97;2.35;;;;;15.20;96887.00;;;;8321451;28;20226;-69
2022/08/08 05:18:05;;;;;;;2.10;1.98;;;;;15.50;96886.00;;;;8318363;28;20234;-69
2022/08/08 05:22:10;;;;;;;2.33;1.65;;;;;15.70;96893.00;;;;8319147;28;20666;-70
2022/08/08 05:26:14;;;;;;;1.85;1.50;;;;;16.10;96891.00;;;;8317896;28;20319;-69
2022/08/08 05:30:21;;;;;;;6.13;2.00;;;;;16.50;96895.00;;;;8313786;28;20262;-71
2022/08/08 05:34:35;;;;;;;1.70;1.60;;;;;16.80;96894.00;;;;8314424;28;20283;-68
2022/08/08 05:38:46;;;;;;;1.92;1.83;;;;;17.10;96904.00;;;;8316559;28;20263;-71
2022/08/08 05:42:51;;;;;;;1.90;1.80;;;;;17.40;96906.00;;;;8315789;28;20319;-70
2022/08/08 05:46:56;;;;;;;1.95;1.73;;;;;17.50;96911.00;;;;8314951;28;20663;-71
2022/08/08 05:51:05;;;;;;;2.40;1.83;;;;;17.60;96911.00;;;;8310618;28;20228;-70
2022/08/08 05:55:19;;;;;;;1.75;1.65;;;;;17.80;96917.00;;;;8314898;28;20230;-71
2022/08/08 05:59:27;;;;;;;2.38;1.70;;;;;17.90;96922.00;;;;8317572;28;20662;-70
2022/08/08 06:03:53;;;;;;;1.80;1.75;;;;;18.10;96924.00;;;;8312747;28;20275;-70
2022/08/08 06:07:57;;;;;;;2.47;1.80;;;;;18.30;96924.00;;;;8316997;28;20240;-69
2022/08/08 06:12:07;;;;;;;1.60;1.50;;;;;18.40;96923.00;;;;8320153;28;20677;-70
2022/08/08 06:16:11;;;;;;;3.42;1.88;;;;;18.40;96926.00;;;;8314733;28;20235;-70
2022/08/08 06:20:15;;;;;;;2.75;1.70;;;;;18.60;96930.00;;;;8308334;28;20229;-69
2022/08/08 06:24:21;;;;;;;4.70;1.77;;;;;18.70;96933.00;;;;8313706;28;20225;-70
2022/08/08 06:28:37;;;;;;;2.08;1.88;;;;;18.90;96934.00;;;;8312540;28;20256;-69
2022/08/08 06:32:45;;;;;;;2.15;1.67;;;;;19.10;96939.00;;;;8314782;28;20221;-69
2022/08/08 06:36:56;;;;;;;2.28;1.70;;;;;19.10;96942.00;;;;8308446;28;20750;-69
2022/08/08 06:41:06;;;;;;;1.80;1.70;;;;;19.20;96950.00;;;;8315984;28;20233;-70
2022/08/08 06:45:18;;;;;;;5.07;1.80;;;;;19.70;96951.00;;;;8294014;28;20214;-70
2022/08/08 06:49:22;;;;;;;1.63;1.60;;;;;20.10;96965.00;;;;8306070;28;20253;-69
2022/08/08 06:53:46;;;;;;;1.40;1.40;;;;;20.50;96963.00;;;;8313477;28;20291;-77
2022/08/08 06:57:58;;;;;;;1.92;1.83;;;;;20.80;96962.00;;;;8309464;28;20229;-77
2022/08/08 07:05:22;;;;;;;1.60;1.60;;;;;21.10;96969.00;;;;8311739;27;1361554;-77
2022/08/08 07:09:38;;;;;;;1.92;1.50;;;;;21.40;96972.00;;;;8347883;28;20228;-79
2022/08/08 07:14:01;;;;;;;1.90;1.50;;;;;21.60;96980.00;;;;8352124;28;20224;-78
2022/08/08 07:18:06;;;;;;;1.80;1.70;;;;;21.90;96977.00;;;;8349301;28;20234;-78
2022/08/08 07:22:38;;;;;;;2.90;1.90;;;;;22.30;96976.00;;;;8357707;28;20228;-68
2022/08/08 07:26:46;;;;;;;3.72;2.00;;;;;22.70;96977.00;;;;8371125;28;20301;-70
2022/08/08 07:30:57;;;;;;;4.78;1.73;;;;;23.20;96998.00;;;;8374491;28;20228;-68
2022/08/08 07:35:01;;;;;;;1.90;1.77;;;;;23.80;96997.00;;;;8372803;28;20219;-68
2022/08/08 07:39:10;;;;;;;3.10;2.03;;;;;24.10;97007.00;;;;8364744;28;20271;-68
2022/08/08 07:43:15;;;;;;;1.60;1.60;;;;;24.70;96998.00;;;;8376301;28;20788;-69
2022/08/08 07:47:34;;;;;;;2.50;1.90;;;;;25.20;97005.00;;;;8384810;28;20235;-70
2022/08/08 07:51:43;;;;;;;5.63;2.20;;;;;25.60;97001.00;;;;8380301;28;20223;-70
2022/08/08 07:56:01;;;;;;;4.70;1.70;;;;;25.80;97012.00;;;;8378189;28;20893;-69
2022/08/08 08:00:08;;;;;;;2.55;1.70;;;;;26.20;97008.00;;;;8369036;28;20236;-71
2022/08/08 08:04:28;;;;;;;1.83;1.67;;;;;26.30;97012.00;;;;8337618;28;20221;-71
2022/08/08 08:08:39;;;;;;;2.78;1.80;;;;;27.10;97009.00;;;;8334979;28;20244;-69
2022/08/08 08:13:19;;;;;;;2.72;1.65;;;;;27.90;97013.00;;;;8336673;28;21080;-70
2022/08/08 08:17:45;;;;;;;1.73;1.60;;;;;27.80;97019.00;;;;8343405;28;20225;-71
2022/08/08 08:21:51;;;;;;;2.95;1.55;;;;;28.30;97012.00;;;;8337619;28;20217;-70
2022/08/08 08:26:02;;;;;;;2.75;1.60;;;;;28.70;97015.00;;;;8331181;28;20611;-71
2022/08/08 08:30:08;;;;;;;3.80;2.03;;;;;29.10;97006.00;;;;8310856;28;20670;-72
2022/08/08 08:34:12;;;;;;;4.35;1.73;;;;;29.50;97011.00;;;;8311554;28;20320;-70
2022/08/08 08:38:16;;;;;;;2.72;1.70;;;;;29.80;97009.00;;;;8295674;28;20588;-71
2022/08/08 08:42:23;;;;;;;3.42;1.50;;;;;30.40;97008.00;;;;8304333;28;20233;-71
2022/08/08 08:46:36;;;;;;;1.83;1.65;;;;;30.40;97011.00;;;;8302179;28;20304;-70
2022/08/08 08:50:44;;;;;;;3.50;1.73;;;;;30.60;97020.00;;;;8298874;28;20599;-70
2022/08/08 08:54:49;;;;;;;2.03;1.80;;;;;30.90;97022.00;;;;8300177;28;20233;-72
2022/08/08 08:58:59;;;;;;;4.30;1.67;;;;;31.20;97025.00;;;;8293821;28;20229;-72
2022/08/08 09:03:09;;;;;;;1.63;1.52;;;;;31.30;97015.00;;;;8292053;28;20229;-71
2022/08/08 09:07:16;;;;;;;2.15;1.48;;;;;31.20;97016.00;;;;8287350;28;20253;-71
2022/08/08 09:11:20;;;;;;;1.80;1.70;;;;;31.40;97021.00;;;;8292492;28;20225;-70
2022/08/08 09:15:25;;;;;;;1.50;1.45;;;;;31.80;97019.00;;;;8296682;28;20276;-72
2022/08/08 09:19:45;;;;;;;5.05;1.67;;;;;31.80;97026.00;;;;8303665;28;20228;-71
2022/08/08 09:24:10;;;;;;;2.53;1.80;;;;;31.70;97030.00;;;;8299767;28;20275;-71
2022/08/08 09:28:16;;;;;;;2.20;1.80;;;;;31.70;97022.00;;;;8310189;28;20228;-72
2022/08/08 09:32:41;;;;;;;2.80;1.60;;;;;32.10;97023.00;;;;8316792;28;20234;-70
2022/08/08 09:37:08;;;;;;;7.25;1.88;;;;;32.50;97008.00;;;;8288637;28;20229;-71
2022/08/08 09:41:37;;;;;;;1.50;1.40;;;;;32.70;97020.00;;;;8306277;28;20233;-71
2022/08/08 09:46:02;;;;;;;1.88;1.67;;;;;33.00;97019.00;;;;8300940;28;20225;-72
2022/08/08 09:50:11;;;;;;;1.70;1.60;;;;;33.30;97020.00;;;;8298039;28;20319;-71
2022/08/08 09:54:21;;;;;;;3.67;1.60;;;;;33.30;97015.00;;;;8319571;28;20225;-71
2022/08/08 09:58:41;;;;;;;1.50;1.40;;;;;33.50;97010.00;;;;8325930;28;21033;-70
2022/08/08 10:02:52;;;;;;;2.92;1.73;;;;;34.00;97003.00;;;;8297476;28;20241;-73
2022/08/08 10:06:57;;;;;;;1.70;1.60;;;;;34.10;97010.00;;;;8290184;28;20252;-70
2022/08/08 10:11:03;;;;;;;1.70;1.60;;;;;34.10;97010.00;;;;8292017;28;20559;-70
2022/08/08 10:15:28;;;;;;;2.45;1.92;;;;;33.90;96996.00;;;;8288756;28;20222;-72
2022/08/08 10:19:35;;;;;;;1.30;1.30;;;;;34.30;97002.00;;;;8289175;28;20226;-72
2022/08/08 10:24:04;;;;;;;3.53;1.60;;;;;35.10;96990.00;;;;8305340;28;20284;-71
2022/08/08 10:28:30;;;;;;;1.55;1.45;;;;;35.30;96991.00;;;;8300482;28;20655;-71
2022/08/08 10:32:40;;;;;;;1.42;1.42;;;;;35.40;96993.00;;;;8310723;28;20232;-70
2022/08/08 10:36:53;;;;;;;8.10;1.58;;;;;35.70;96979.00;;;;8314943;28;20268;-70
2022/08/08 10:41:03;;;;;;;4.10;1.70;;;;;35.70;96988.00;;;;8300966;28;20229;-70
2022/08/08 10:45:09;;;;;;;1.38;1.38;;;;;35.90;96977.00;;;;8283569;28;21248;-71
2022/08/08 10:49:19;;;;;;;2.22;1.52;;;;;35.30;96985.00;;;;8294467;28;20317;-70
2022/08/08 10:53:42;;;;;;;2.45;1.70;;;;;35.10;96975.00;;;;8284730;28;20627;-73
2022/08/08 10:58:03;;;;;;;1.42;1.40;;;;;35.40;96971.00;;;;8294532;28;20298;-70
2022/08/08 11:02:10;;;;;;;1.63;1.50;;;;;35.90;96976.00;;;;8277945;28;20245;-72
2022/08/08 11:06:16;;;;;;;1.80;1.70;;;;;35.80;96976.00;;;;8275659;28;20229;-72
2022/08/08 11:10:21;;;;;;;4.22;1.50;;;;;34.90;96978.00;;;;8286196;28;20232;-71
2022/08/08 11:14:31;;;;;;;1.92;1.80;;;;;34.00;96973.00;;;;8277811;28;20233;-70
2022/08/08 11:18:38;;;;;;;1.73;1.63;;;;;32.80;96967.00;;;;8280321;28;20777;-71
2022/08/08 11:22:42;;;;;;;1.88;1.50;;;;;31.80;96965.00;;;;8280804;28;20663;-71
2022/08/08 11:26:46;;;;;;;1.80;1.70;;;;;30.60;96970.00;;;;8278066;28;20233;-71
2022/08/08 11:31:01;;;;;;;4.75;1.60;;;;;31.40;96958.00;;;;8298240;28;20325;-72
2022/08/08 11:35:10;;;;;;;1.77;1.67;;;;;32.00;96963.00;;;;8288293;28;20233;-71
2022/08/08 11:39:35;;;;;;;3.20;1.65;;;;;31.20;96967.00;;;;8316143;28;20233;-70
2022/08/08 11:43:40;;;;;;;1.55;1.48;;;;;30.90;96964.00;;;;8282267;28;20230;-73
2022/08/08 11:47:44;;;;;;;1.75;1.65;;;;;30.90;96973.00;;;;8305567;28;20229;-70
2022/08/08 11:52:08;;;;;;;2.85;1.55;;;;;30.00;96971.00;;;;8295008;28;20251;-71
2022/08/08 11:56:32;;;;;;;3.65;1.67;;;;;29.40;96960.00;;;;8296995;28;20224;-70
2022/08/08 12:00:44;;;;;;;1.92;1.70;;;;;31.00;96956.00;;;;8293803;28;20254;-70
2022/08/08 12:04:50;;;;;;;4.07;1.63;;;;;32.50;96960.00;;;;8299994;28;20232;-70
2022/08/08 12:09:05;;;;;;;1.70;1.60;;;;;33.50;96947.00;;;;8320497;28;20226;-70
2022/08/08 12:13:11;;;;;;;3.22;1.60;;;;;33.60;96949.00;;;;8312367;28;20245;-71
2022/08/08 12:17:16;;;;;;;1.52;1.42;;;;;33.00;96941.00;;;;8296084;28;20221;-75
2022/08/08 12:21:24;;;;;;;2.88;1.42;;;;;33.10;96946.00;;;;8312225;28;20227;-70
2022/08/08 12:25:49;;;;;;;1.73;1.60;;;;;32.30;96946.00;;;;8308841;28;20309;-72
2022/08/08 12:30:00;;;;;;;4.20;1.60;;;;;31.50;96949.00;;;;8309735;28;20308;-72
2022/08/08 12:34:04;;;;;;;1.85;1.75;;;;;30.80;96943.00;;;;8293576;28;20237;-72
2022/08/08 12:38:12;;;;;;;1.60;1.50;;;;;30.80;96946.00;;;;8294468;28;20226;-70
2022/08/08 12:42:21;;;;;;;1.80;1.55;;;;;30.80;96939.00;;;;8313275;28;20336;-70
2022/08/08 12:46:29;;;;;;;2.10;1.50;;;;;30.20;96936.00;;;;8315056;28;20236;-71
2022/08/08 12:50:40;;;;;;;2.35;1.52;;;;;29.90;96920.00;;;;8314331;28;20308;-70
2022/08/08 12:54:48;;;;;;;1.50;1.40;;;;;29.80;96920.00;;;;8304767;28;20243;-70
2022/08/08 12:58:55;;;;;;;1.40;1.40;;;;;30.40;96910.00;;;;8301820;28;20261;-70
2022/08/08 13:02:58;;;;;;;3.58;1.48;;;;;31.10;96913.00;;;;8292958;28;20230;-72
2022/08/08 13:07:05;;;;;;;1.67;1.58;;;;;31.40;96918.00;;;;8292846;28;20312;-71
2022/08/08 13:11:19;;;;;;;2.20;1.40;;;;;31.40;96920.00;;;;8317918;28;20240;-74
2022/08/08 13:15:29;;;;;;;7.38;1.35;;;;;31.10;96916.00;;;;8311215;28;20225;-73
2022/08/08 13:19:33;;;;;;;1.45;1.40;;;;;30.90;96913.00;;;;8313211;28;20324;-74
2022/08/08 13:23:52;;;;;;;1.55;1.40;;;;;30.60;96907.00;;;;8306452;28;20875;-71
2022/08/08 13:27:58;;;;;;;2.20;1.40;;;;;30.40;96907.00;;;;8294874;28;20226;-72
2022/08/08 13:32:06;;;;;;;1.40;1.33;;;;;30.20;96908.00;;;;8303354;28;20222;-72
2022/08/08 13:36:12;;;;;;;1.40;1.30;;;;;30.40;96904.00;;;;8304643;28;20308;-74
2022/08/08 13:40:17;;;;;;;1.65;1.45;;;;;31.30;96899.00;;;;8293683;28;20448;-72
2022/08/08 13:44:30;;;;;;;5.45;1.30;;;;;32.70;96899.00;;;;8293303;28;20221;-68
2022/08/08 13:48:43;;;;;;;3.88;1.40;;;;;33.10;96893.00;;;;8300189;28;20249;-68
2022/08/08 13:53:07;;;;;;;1.90;1.50;;;;;32.90;96893.00;;;;8295387;28;20851;-69
2022/08/08 13:57:29;;;;;;;2.03;1.45;;;;;33.00;96892.00;;;;8295623;28;20929;-69
2022/08/08 14:01:55;;;;;;;1.52;1.40;;;;;33.00;96896.00;;;;8299424;28;20268;-68
2022/08/08 14:06:12;;;;;;;3.17;1.50;;;;;33.20;96899.00;;;;8298080;28;20221;-68
2022/08/08 14:10:36;;;;;;;2.25;1.50;;;;;33.50;96887.00;;;;8295916;28;20616;-72
2022/08/08 14:14:43;;;;;;;1.40;1.40;;;;;33.40;96890.00;;;;8285857;28;20313;-73
2022/08/08 14:18:53;;;;;;;1.75;1.40;;;;;33.20;96890.00;;;;8291376;28;20236;-72
2022/08/08 14:23:06;;;;;;;3.13;1.30;;;;;33.60;96880.00;;;;8294804;28;20320;-72
2022/08/08 14:27:26;;;;;;;3.20;1.20;;;;;33.80;96880.00;;;;8284442;28;20233;-71
2022/08/08 14:31:30;;;;;;;1.60;1.42;;;;;34.00;96888.00;;;;8281791;28;20232;-72
2022/08/08 14:35:59;;;;;;;3.60;1.40;;;;;33.80;96889.00;;;;8278911;28;20849;-72
2022/08/08 14:40:04;;;;;;;1.52;1.40;;;;;34.20;96881.00;;;;8314437;28;20254;-72
2022/08/08 14:44:10;;;;;;;1.63;1.45;;;;;33.60;96887.00;;;;8312867;28;20325;-72
2022/08/08 14:48:24;;;;;;;1.60;1.40;;;;;33.30;96895.00;;;;8287524;28;20316;-73
2022/08/08 14:52:42;;;;;;;1.35;1.25;;;;;33.30;96891.00;;;;8294272;28;20222;-72
2022/08/08 14:56:49;;;;;;;4.80;1.88;;;;;33.00;96891.00;;;;8288713;28;20223;-72
2022/08/08 15:00:53;;;;;;;1.92;1.30;;;;;33.30;96900.00;;;;8286871;28;20230;-72
2022/08/08 15:04:56;;;;;;;4.38;2.50;;;;;33.10;96894.00;;;;8282608;28;20247;-74
2022/08/08 15:09:13;;;;;;;3.58;1.50;;;;;33.00;96893.00;;;;8309955;28;20229;-75
2022/08/08 15:13:18;;;;;;;1.58;1.48;;;;;33.30;96892.00;;;;8291540;28;20271;-74
2022/08/08 15:17:22;;;;;;;1.20;1.20;;;;;33.40;96895.00;;;;8309340;28;20221;-73
2022/08/08 15:21:26;;;;;;;1.20;1.20;;;;;33.50;96896.00;;;;8292341;28;20352;-72
2022/08/08 15:25:32;;;;;;;1.35;1.35;;;;;33.30;96884.00;;;;8279625;28;20233;-75
2022/08/08 15:29:37;;;;;;;3.42;1.50;;;;;33.10;96883.00;;;;8304801;28;20226;-74
2022/08/08 15:33:40;;;;;;;2.13;1.42;;;;;33.20;96884.00;;;;8290696;28;20221;-72
2022/08/08 15:38:02;;;;;;;2.63;1.10;;;;;32.80;96887.00;;;;8295800;28;20222;-72
2022/08/08 15:42:06;;;;;;;2.08;1.05;;;;;32.40;96886.00;;;;8294263;28;20701;-71
2022/08/08 15:46:14;;;;;;;2.42;1.25;;;;;31.90;96893.00;;;;8295747;28;20258;-72
2022/08/08 15:50:17;;;;;;;2.80;1.30;;;;;31.90;96901.00;;;;8316636;28;20294;-71
2022/08/08 15:54:23;;;;;;;1.85;1.23;;;;;31.80;96892.00;;;;8300342;28;20225;-71
2022/08/08 15:58:42;;;;;;;1.27;1.27;;;;;31.80;96896.00;;;;8302653;28;20244;-74
2022/08/08 16:02:52;;;;;;;2.40;1.27;;;;;31.80;96892.00;;;;8285191;28;20237;-72
2022/08/08 16:06:59;;;;;;;3.15;1.52;;;;;31.90;96886.00;;;;8311761;28;20313;-71
2022/08/08 16:11:03;;;;;;;1.27;1.27;;;;;31.90;96882.00;;;;8297246;28;20277;-72
2022/08/08 16:15:26;;;;;;;1.33;1.23;;;;;31.90;96880.00;;;;8284201;28;20260;-70
2022/08/08 16:19:36;;;;;;;2.05;1.35;;;;;32.40;96881.00;;;;8283022;28;20228;-72
2022/08/08 16:24:02;;;;;;;1.65;1.23;;;;;32.50;96886.00;;;;8293541;28;20283;-72
2022/08/08 16:28:05;;;;;;;2.58;1.42;;;;;32.70;96889.00;;;;8311829;28;20582;-71
2022/08/08 16:32:30;;;;;;;1.63;1.52;;;;;33.00;96881.00;;;;8297018;28;20230;-72
2022/08/08 16:36:36;;;;;;;1.50;1.38;;;;;33.30;96888.00;;;;8299045;28;20259;-72
2022/08/08 16:40:39;;;;;;;1.55;1.20;;;;;33.60;96885.00;;;;8299000;28;20232;-72
2022/08/08 16:44:42;;;;;;;1.75;1.60;;;;;33.80;96881.00;;;;8303508;28;20229;-71
2022/08/08 16:48:56;;;;;;;3.58;1.40;;;;;33.60;96892.00;;;;8295945;28;20674;-72
2022/08/08 16:53:01;;;;;;;1.48;1.48;;;;;33.50;96885.00;;;;8302855;28;20224;-71
2022/08/08 16:57:25;;;;;;;6.93;1.50;;;;;33.40;96879.00;;;;8305349;28;20237;-71
2022/08/08 17:01:48;;;;;;;1.67;1.30;;;;;33.30;96888.00;;;;8288867;28;20275;-71
2022/08/08 17:05:53;;;;;;;1.40;1.30;;;;;33.20;96891.00;;;;8292028;28;20291;-71
2022/08/08 17:09:57;;;;;;;2.67;1.17;;;;;33.10;96892.00;;;;8310367;28;20229;-71
2022/08/08 17:14:00;;;;;;;1.42;1.33;;;;;33.20;96894.00;;;;8301473;28;20673;-71
2022/08/08 17:18:04;;;;;;;6.20;1.45;;;;;33.10;96891.00;;;;8301723;28;20870;-72
2022/08/08 17:22:17;;;;;;;1.95;1.30;;;;;33.10;96905.00;;;;8299566;28;20575;-71
2022/08/08 17:26:22;;;;;;;1.40;1.40;;;;;33.40;96907.00;;;;8304021;28;20795;-79
2022/08/08 17:30:31;;;;;;;1.25;1.25;;;;;33.20;96913.00;;;;8294925;28;20222;-78
2022/08/08 17:34:34;;;;;;;2.75;1.48;;;;;33.10;96909.00;;;;8292202;28;20221;-79
2022/08/08 17:38:58;;;;;;;1.90;1.45;;;;;33.00;96911.00;;;;8290577;28;20291;-78
2022/08/08 17:43:23;;;;;;;2.53;1.30;;;;;32.60;96912.00;;;;8285488;28;20630;-78
2022/08/08 17:47:28;;;;;;;1.60;1.38;;;;;32.00;96915.00;;;;8286902;28;20710;-77
2022/08/08 17:51:45;;;;;;;1.75;1.38;;;;;31.40;96918.00;;;;8304168;28;20256;-77
2022/08/08 17:55:54;;;;;;;1.48;1.40;;;;;30.40;96923.00;;;;8283515;28;20253;-77
2022/08/08 18:00:12;;;;;;;2.92;1.58;;;;;29.50;96929.00;;;;8285933;28;20253;-78
2022/08/08 18:04:29;;;;;;;1.63;1.52;;;;;28.80;96936.00;;;;8295793;28;20650;-78
2022/08/08 18:08:35;;;;;;;1.50;1.40;;;;;28.30;96937.00;;;;8291050;28;20321;-77
2022/08/08 18:12:44;;;;;;;1.88;1.63;;;;;27.80;96937.00;;;;8291370;28;20230;-78
2022/08/08 18:16:50;;;;;;;2.00;1.65;;;;;27.50;96936.00;;;;8280361;28;20749;-78
2022/08/08 18:20:56;;;;;;;1.65;1.52;;;;;27.20;96948.00;;;;8302833;28;20234;-77
2022/08/08 18:25:05;;;;;;;2.08;1.88;;;;;26.90;96942.00;;;;8289372;28;20224;-77
2022/08/08 18:29:10;;;;;;;1.88;1.70;;;;;26.60;96945.00;;;;8313593;28;20737;-78
2022/08/08 18:33:19;;;;;;;2.75;1.60;;;;;26.30;96949.00;;;;8294683;28;20683;-77
2022/08/08 18:37:42;;;;;;;1.50;1.40;;;;;26.10;96954.00;;;;8298883;28;20649;-78
2022/08/08 18:41:50;;;;;;;4.80;1.88;;;;;25.90;96956.00;;;;8293352;28;20312;-78
2022/08/08 18:46:06;;;;;;;1.60;1.45;;;;;25.60;96964.00;;;;8315232;28;20247;-78
2022/08/08 18:50:30;;;;;;;2.03;1.83;;;;;25.30;96963.00;;;;8291733;28;20221;-77
2022/08/08 18:54:34;;;;;;;1.95;1.75;;;;;25.10;96975.00;;;;8285686;28;20737;-76
2022/08/08 18:58:37;;;;;;;1.67;1.60;;;;;24.90;96977.00;;;;8314618;28;20638;-77
2022/08/08 19:02:42;;;;;;;3.38;1.90;;;;;24.80;96990.00;;;;8300170;28;20325;-78
2022/08/08 19:06:59;;;;;;;2.72;2.08;;;;;24.60;96990.00;;;;8282083;28;20257;-78
2022/08/08 19:11:03;;;;;;;2.53;1.80;;;;;24.40;96997.00;;;;8301989;28;20230;-77
2022/08/08 19:15:11;;;;;;;2.00;1.77;;;;;24.00;97004.00;;;;8276800;28;20227;-71
2022/08/08 19:19:16;;;;;;;3.35;1.73;;;;;23.70;97011.00;;;;8293284;28;20229;-72
2022/08/08 19:23:21;;;;;;;2.03;1.90;;;;;23.40;97019.00;;;;8295640;28;20232;-73
2022/08/08 19:27:25;;;;;;;3.40;1.60;;;;;23.20;97024.00;;;;8294715;28;20248;-68
2022/08/08 19:31:48;;;;;;;5.18;2.22;;;;;23.10;97022.00;;;;8285537;28;20226;-73
2022/08/08 19:35:54;;;;;;;2.08;1.73;;;;;23.00;97023.00;;;;8293103;28;20224;-73
2022/08/08 19:40:13;;;;;;;1.85;1.75;;;;;22.90;97028.00;;;;8294164;28;20340;-73
2022/08/08 19:44:18;;;;;;;1.90;1.63;;;;;22.90;97034.00;;;;8300888;28;20229;-72
2022/08/08 19:48:42;;;;;;;1.92;1.80;;;;;22.80;97026.00;;;;8308271;28;20237;-72
2022/08/08 19:52:45;;;;;;;1.70;1.60;;;;;22.70;97035.00;;;;8292650;28;20219;-73
2022/08/08 19:57:02;;;;;;;4.30;2.03;;;;;22.60;97039.00;;;;8300289;28;20233;-71
2022/08/08 20:01:09;;;;;;;1.90;1.80;;;;;22.40;97040.00;;;;8290336;28;20222;-70
2022/08/08 20:05:21;;;;;;;5.47;1.85;;;;;22.30;97027.00;;;;8292420;28;20247;-71
2022/08/08 20:09:45;;;;;;;4.63;2.05;;;;;22.20;97039.00;;;;8317598;28;20237;-70
2022/08/08 20:14:00;;;;;;;5.63;1.65;;;;;22.10;97038.00;;;;8314383;28;20225;-69
2022/08/08 20:18:23;;;;;;;6.35;1.70;;;;;21.90;97036.00;;;;8311634;28;20283;-70
2022/08/08 20:22:48;;;;;;;3.95;1.77;;;;;21.90;97038.00;;;;8315451;28;20229;-69
2022/08/08 20:26:56;;;;;;;8.00;1.70;;;;;21.90;97041.00;;;;8313444;28;20331;-70
2022/08/08 20:31:02;;;;;;;4.22;1.65;;;;;21.80;97049.00;;;;8302224;28;20303;-71
2022/08/08 20:35:06;;;;;;;1.88;1.50;;;;;21.80;97046.00;;;;8290542;28;20711;-72
2022/08/08 20:39:11;;;;;;;3.30;2.10;;;;;21.80;97047.00;;;;8315690;28;20551;-71
2022/08/08 20:43:14;;;;;;;2.80;1.60;;;;;21.70;97049.00;;;;8303916;28;20591;-72
2022/08/08 20:47:39;;;;;;;4.55;1.80;;;;;21.70;97046.00;;;;8310404;28;20641;-72
2022/08/08 20:51:44;;;;;;;2.80;1.60;;;;;21.60;97059.00;;;;8307994;28;20221;-73
2022/08/08 20:55:49;;;;;;;3.13;1.75;;;;;21.60;97058.00;;;;8317501;28;20284;-72
2022/08/08 20:59:53;;;;;;;3.78;1.80;;;;;21.60;97060.00;;;;8298570;28;20225;-72
2022/08/08 21:03:59;;;;;;;3.90;2.03;;;;;21.60;97072.00;;;;8302425;28;20237;-72
2022/08/08 21:08:04;;;;;;;5.13;1.80;;;;;21.50;97063.00;;;;8316927;28;20551;-70
2022/08/08 21:12:27;;;;;;;1.80;1.70;;;;;21.30;97066.00;;;;8321409;28;20217;-72
2022/08/08 21:16:36;;;;;;;5.00;1.73;;;;;21.20;97068.00;;;;8321846;28;20229;-70
2022/08/08 21:20:42;;;;;;;4.13;1.88;;;;;21.00;97063.00;;;;8308696;28;20243;-71